Time;durP1;ratioP1;P1;durP2;ratioP2;P2;SDS_P1;SDS_P2;PMS_P1;PMS_P2;Temp;Humidity;BMP_temperature;BMP_pressure;BME280_temperature;BME280_humidity;BME280_pressure;Samples;Min_cycle;Max_cycle;Signal;HPM_P1;HPM_P2
2022/03/05 00:02:20;;;;;;;31.95;17.20;;;;;;;-145.45;100.00;62759.84;5281471;28;20056;-82
2022/03/05 00:04:52;;;;;;;37.25;17.20;;;;;;;-145.45;100.00;62759.84;5292526;28;20500;-83
2022/03/05 00:07:23;;;;;;;29.83;16.08;;;;;;;-145.45;100.00;62759.84;5266205;28;20107;-83
2022/03/05 00:09:54;;;;;;;36.05;18.33;;;;;;;-145.45;100.00;62759.84;5283543;28;20029;-83
2022/03/05 00:12:26;;;;;;;36.70;17.73;;;;;;;-145.45;100.00;62759.84;5284426;28;20025;-83
2022/03/05 00:14:57;;;;;;;36.72;17.33;;;;;;;-145.45;100.00;62759.84;5283107;28;20504;-83
2022/03/05 00:17:28;;;;;;;35.53;17.80;;;;;;;-145.45;100.00;62759.84;5266546;28;20393;-83
2022/03/05 00:20:00;;;;;;;35.17;17.92;;;;;;;-145.45;100.00;62759.84;5265912;28;20025;-83
2022/03/05 00:22:32;;;;;;;34.40;18.25;;;;;;;-145.45;100.00;62759.84;5284340;28;20032;-83
2022/03/05 00:25:04;;;;;;;40.40;18.02;;;;;;;-145.45;100.00;62759.84;5283214;28;20578;-83
2022/03/05 00:27:36;;;;;;;39.50;19.27;;;;;;;-145.45;100.00;62759.84;5284593;28;20972;-81
2022/03/05 00:30:07;;;;;;;37.78;19.05;;;;;;;-145.45;100.00;62759.84;5275880;28;20342;-81
2022/03/05 00:32:39;;;;;;;40.38;19.77;;;;;;;-145.45;100.00;62759.84;5268986;28;20033;-82
2022/03/05 00:35:11;;;;;;;40.80;20.05;;;;;;;-145.45;100.00;62759.84;5266312;28;20407;-82
2022/03/05 00:37:42;;;;;;;42.28;20.35;;;;;;;-145.45;100.00;62759.84;5283953;28;20029;-82
2022/03/05 00:40:14;;;;;;;38.38;19.95;;;;;;;-145.45;100.00;62759.84;5284797;28;20025;-82
2022/03/05 00:42:45;;;;;;;44.00;20.73;;;;;;;-145.45;100.00;62759.84;5284094;28;20223;-82
2022/03/05 00:45:16;;;;;;;42.97;20.17;;;;;;;-145.45;100.00;62759.84;5280004;28;20116;-82
2022/03/05 00:47:48;;;;;;;43.30;21.90;;;;;;;-145.45;100.00;62759.84;5283188;28;20080;-82
2022/03/05 00:50:19;;;;;;;45.45;23.10;;;;;;;-145.45;100.00;62759.84;5280276;28;20481;-82
2022/03/05 00:52:50;;;;;;;41.83;22.08;;;;;;;-145.45;100.00;62759.84;5276030;28;20079;-82
2022/03/05 00:55:22;;;;;;;41.63;20.60;;;;;;;-145.45;100.00;62759.84;5281144;28;20083;-82
2022/03/05 00:57:53;;;;;;;43.78;21.52;;;;;;;-145.45;100.00;62759.84;5281741;28;20063;-82
2022/03/05 01:00:24;;;;;;;50.88;23.42;;;;;;;-145.45;100.00;62759.84;5283428;28;20025;-82
2022/03/05 01:02:56;;;;;;;44.13;21.25;;;;;;;-145.45;100.00;62759.84;5281989;28;20445;-82
2022/03/05 01:05:27;;;;;;;45.72;22.48;;;;;;;-145.45;100.00;62759.84;5281704;28;20021;-82
2022/03/05 01:07:59;;;;;;;48.63;22.15;;;;;;;-145.45;100.00;62759.84;5281945;28;20033;-82
2022/03/05 01:10:31;;;;;;;46.42;24.15;;;;;;;-145.45;100.00;62759.84;5281695;28;20024;-82
2022/03/05 01:13:03;;;;;;;51.53;23.20;;;;;;;-145.45;100.00;62759.84;5283233;28;20037;-82
2022/03/05 01:15:34;;;;;;;47.20;23.10;;;;;;;-145.45;100.00;62759.84;5264180;28;20059;-82
2022/03/05 01:18:05;;;;;;;43.30;21.77;;;;;;;-145.45;100.00;62759.84;5282316;28;20392;-82
2022/03/05 01:20:37;;;;;;;53.00;24.55;;;;;;;-145.45;100.00;62759.84;5282987;28;20612;-82
2022/03/05 01:23:08;;;;;;;48.97;22.75;;;;;;;-145.45;100.00;62759.84;5280795;28;20337;-82
2022/03/05 01:25:39;;;;;;;46.00;23.67;;;;;;;-145.45;100.00;62759.84;5281234;28;20028;-82
2022/03/05 01:28:11;;;;;;;49.30;23.95;;;;;;;-145.45;100.00;62759.84;5281787;28;20032;-82
2022/03/05 01:30:42;;;;;;;46.72;23.30;;;;;;;-145.45;100.00;62759.84;5263094;28;20124;-82
2022/03/05 01:33:17;;;;;;;51.35;22.35;;;;;;;-145.45;100.00;62759.84;5279392;28;20021;-82
2022/03/05 01:35:49;;;;;;;50.75;24.35;;;;;;;-145.45;100.00;62759.84;5279543;28;20033;-82
2022/03/05 01:38:20;;;;;;;49.78;23.20;;;;;;;-145.45;100.00;62759.84;5281878;28;20074;-82
2022/03/05 01:40:51;;;;;;;51.65;25.70;;;;;;;-145.45;100.00;62759.84;5281268;28;20029;-81
2022/03/05 01:43:23;;;;;;;50.15;24.85;;;;;;;-145.45;100.00;62759.84;5281127;28;20132;-82
2022/03/05 01:45:54;;;;;;;54.72;25.58;;;;;;;-145.45;100.00;62759.84;5263367;28;20033;-82
2022/03/05 01:48:25;;;;;;;59.33;24.05;;;;;;;-145.45;100.00;62759.84;5263339;28;20029;-82
2022/03/05 01:50:57;;;;;;;51.50;25.73;;;;;;;-145.45;100.00;62759.84;5281103;28;20478;-82
2022/03/05 01:53:29;;;;;;;55.55;24.70;;;;;;;-145.45;100.00;62759.84;5262981;28;20440;-82
2022/03/05 01:56:00;;;;;;;59.45;25.48;;;;;;;-145.45;100.00;62759.84;5280472;28;20112;-82
2022/03/05 01:58:32;;;;;;;55.13;25.40;;;;;;;-145.45;100.00;62759.84;5279909;28;20029;-82
2022/03/05 02:01:04;;;;;;;56.97;26.67;;;;;;;-145.45;100.00;62759.84;5281104;28;20131;-82
2022/03/05 02:03:37;;;;;;;53.80;24.77;;;;;;;-145.45;100.00;62759.84;5281863;28;20025;-81
2022/03/05 02:06:08;;;;;;;54.58;27.27;;;;;;;-145.45;100.00;62759.84;5281542;28;20018;-81
2022/03/05 02:08:39;;;;;;;54.00;26.58;;;;;;;-145.45;100.00;62759.84;5302382;28;20033;-80
2022/03/05 02:11:11;;;;;;;58.58;26.45;;;;;;;-145.45;100.00;62759.84;5293653;28;20033;-83
2022/03/05 02:13:42;;;;;;;56.42;25.85;;;;;;;-145.45;100.00;62759.84;5288788;28;20036;-80
2022/03/05 02:16:14;;;;;;;63.20;27.35;;;;;;;-145.45;100.00;62759.84;5283300;28;20365;-80
2022/03/05 02:18:49;;;;;;;58.05;27.40;;;;;;;-145.45;100.00;62759.84;5282268;28;20726;-80
2022/03/05 02:21:25;;;;;;;62.08;28.67;;;;;;;-145.45;100.00;62759.84;5280845;28;20028;-81
2022/03/05 02:23:57;;;;;;;67.38;28.70;;;;;;;-145.45;100.00;62759.84;5278830;28;20091;-81
2022/03/05 02:26:28;;;;;;;61.97;28.38;;;;;;;-145.45;100.00;62759.84;5280308;28;20024;-81
2022/03/05 02:29:00;;;;;;;60.03;27.17;;;;;;;-145.45;100.00;62759.84;5279975;28;20028;-81
2022/03/05 02:31:31;;;;;;;59.97;29.33;;;;;;;-145.45;100.00;62759.84;5280568;28;20028;-81
2022/03/05 02:34:02;;;;;;;62.72;28.05;;;;;;;-145.45;100.00;62759.84;5280778;28;20029;-81
2022/03/05 02:36:34;;;;;;;64.45;28.52;;;;;;;-145.45;100.00;62759.84;5280363;28;20479;-81
2022/03/05 02:39:05;;;;;;;60.95;29.42;;;;;;;-145.45;100.00;62759.84;5262706;28;20750;-81
2022/03/05 02:41:36;;;;;;;61.17;28.75;;;;;;;-145.45;100.00;62759.84;5278047;28;20025;-81
2022/03/05 02:44:09;;;;;;;61.42;28.42;;;;;;;-145.45;100.00;62759.84;5283153;28;20099;-81
2022/03/05 02:46:40;;;;;;;64.38;28.77;;;;;;;-145.45;100.00;62759.84;5265923;28;20025;-81
2022/03/05 02:49:11;;;;;;;55.45;27.10;;;;;;;-145.45;100.00;62759.84;5265835;28;20025;-81
2022/03/05 02:51:43;;;;;;;54.78;25.42;;;;;;;-145.45;100.00;62759.84;5283615;28;20054;-81
2022/03/05 02:54:14;;;;;;;63.10;27.45;;;;;;;-145.45;100.00;62759.84;5267266;28;20014;-81
2022/03/05 02:56:46;;;;;;;69.47;28.98;;;;;;;-145.45;100.00;62759.84;5282502;28;20039;-81
2022/03/05 02:59:17;;;;;;;58.17;26.65;;;;;;;-145.45;100.00;62759.84;5268683;28;20029;-81
2022/03/05 03:01:49;;;;;;;61.15;28.33;;;;;;;-145.45;100.00;62759.84;5282465;28;20071;-80
2022/03/05 03:04:20;;;;;;;61.00;27.70;;;;;;;-145.45;100.00;62759.84;5283690;28;20028;-81
2022/03/05 03:06:51;;;;;;;61.70;25.42;;;;;;;-145.45;100.00;62759.84;5283240;28;20017;-81
2022/03/05 03:09:23;;;;;;;58.65;26.45;;;;;;;-145.45;100.00;62759.84;5282643;28;20036;-82
2022/03/05 03:11:54;;;;;;;68.43;29.02;;;;;;;-145.45;100.00;62759.84;5283570;28;20041;-80
2022/03/05 03:14:26;;;;;;;59.42;26.58;;;;;;;-145.45;100.00;62759.84;5283615;28;20108;-81
2022/03/05 03:16:57;;;;;;;58.95;27.00;;;;;;;-145.45;100.00;62759.84;5282732;28;20017;-80
2022/03/05 03:19:28;;;;;;;66.68;28.95;;;;;;;-145.45;100.00;62759.84;5280166;28;20021;-80
2022/03/05 03:21:59;;;;;;;60.90;27.45;;;;;;;-145.45;100.00;62759.84;5285664;28;20409;-80
2022/03/05 03:24:31;;;;;;;64.05;27.42;;;;;;;-145.45;100.00;62759.84;5289904;28;20028;-80
2022/03/05 03:27:02;;;;;;;61.30;26.88;;;;;;;-145.45;100.00;62759.84;5286270;28;20032;-80
2022/03/05 03:29:34;;;;;;;60.97;26.42;;;;;;;-145.45;100.00;62759.84;5264382;28;20032;-80
2022/03/05 03:32:06;;;;;;;65.05;28.25;;;;;;;-145.45;100.00;62759.84;5283296;28;20083;-80
2022/03/05 03:34:37;;;;;;;62.90;28.75;;;;;;;-145.45;100.00;62759.84;5283362;28;20616;-80
2022/03/05 03:37:08;;;;;;;61.72;27.05;;;;;;;-145.45;100.00;62759.84;5264992;28;20400;-80
2022/03/05 03:39:40;;;;;;;59.72;26.75;;;;;;;-145.45;100.00;62759.84;5282009;28;20029;-80
2022/03/05 03:42:11;;;;;;;50.70;25.02;;;;;;;-145.45;100.00;62759.84;5281998;28;20041;-80
2022/03/05 03:44:42;;;;;;;65.32;25.95;;;;;;;-145.45;100.00;62759.84;5282615;28;20036;-80
2022/03/05 03:47:14;;;;;;;62.00;28.25;;;;;;;-145.45;100.00;62759.84;5283004;28;20045;-80
2022/03/05 03:49:46;;;;;;;60.80;27.25;;;;;;;-145.45;100.00;62759.84;5255665;28;20049;-80
2022/03/05 03:52:19;;;;;;;59.00;25.92;;;;;;;-145.45;100.00;62759.84;5241058;28;20029;-80
2022/03/05 03:54:50;;;;;;;61.15;26.17;;;;;;;-145.45;100.00;62759.84;5242891;28;20032;-81
2022/03/05 03:57:22;;;;;;;60.10;25.92;;;;;;;-145.45;100.00;62759.84;5242543;28;20097;-81
2022/03/05 03:59:53;;;;;;;58.08;26.48;;;;;;;-145.45;100.00;62759.84;5242580;28;20116;-81
2022/03/05 04:02:25;;;;;;;72.22;29.38;;;;;;;-145.45;100.00;62759.84;5247998;28;20044;-81
2022/03/05 04:04:56;;;;;;;69.40;29.27;;;;;;;-145.45;100.00;62759.84;5240754;28;20034;-81
2022/03/05 04:10:17;;;;;;;69.70;28.40;;;;;;;-145.45;100.00;62759.84;5239992;28;20034;-81
2022/03/05 04:12:49;;;;;;;68.70;28.35;;;;;;;-145.45;100.00;62759.84;5241392;28;20032;-81
2022/03/05 04:15:20;;;;;;;69.38;28.20;;;;;;;-145.45;100.00;62759.84;5242170;28;20030;-81
2022/03/05 04:17:52;;;;;;;69.85;29.90;;;;;;;-145.45;100.00;62759.84;5241309;28;20085;-81
2022/03/05 04:20:23;;;;;;;70.45;29.08;;;;;;;-145.45;100.00;62759.84;5240186;28;20124;-80
2022/03/05 04:22:54;;;;;;;71.43;28.33;;;;;;;-145.45;100.00;62759.84;5241598;28;20129;-80
2022/03/05 04:25:26;;;;;;;67.80;27.42;;;;;;;-145.45;100.00;62759.84;5240238;28;20614;-80
2022/03/05 04:27:58;;;;;;;73.15;30.38;;;;;;;-145.45;100.00;62759.84;5241121;28;20774;-81
2022/03/05 04:30:29;;;;;;;73.00;31.08;;;;;;;-145.45;100.00;62759.84;5239396;28;20025;-81
2022/03/05 04:33:01;;;;;;;77.30;30.35;;;;;;;-145.45;100.00;62759.84;5239893;28;20109;-81
2022/03/05 04:35:32;;;;;;;69.97;29.45;;;;;;;-145.45;100.00;62759.84;5240721;28;20041;-81
2022/03/05 04:38:04;;;;;;;72.38;29.42;;;;;;;-145.45;100.00;62759.84;5239221;28;20174;-81
2022/03/05 04:40:35;;;;;;;68.35;28.15;;;;;;;-145.45;100.00;62759.84;5239774;28;20026;-81
2022/03/05 04:43:06;;;;;;;70.90;27.23;;;;;;;-145.45;100.00;62759.84;5240959;28;20073;-81
2022/03/05 04:45:38;;;;;;;72.50;29.48;;;;;;;-145.45;100.00;62759.84;5240282;28;20045;-79
2022/03/05 04:48:09;;;;;;;77.60;29.75;;;;;;;-145.45;100.00;62759.84;5242890;28;20038;-80
2022/03/05 04:50:40;;;;;;;78.22;30.42;;;;;;;-145.45;100.00;62759.84;5269212;28;20428;-80
2022/03/05 04:53:12;;;;;;;66.35;26.73;;;;;;;-145.45;100.00;62759.84;5263828;28;20025;-80
2022/03/05 04:55:43;;;;;;;76.97;29.85;;;;;;;-145.45;100.00;62759.84;5261834;28;20020;-80
2022/03/05 04:58:15;;;;;;;75.28;28.98;;;;;;;-145.45;100.00;62759.84;5282130;28;20060;-80
2022/03/05 05:00:47;;;;;;;77.18;30.23;;;;;;;-145.45;100.00;62759.84;5279517;28;20056;-80
2022/03/05 05:03:18;;;;;;;80.65;31.83;;;;;;;-145.45;100.00;62759.84;5262279;28;20037;-80
2022/03/05 05:05:49;;;;;;;87.07;33.17;;;;;;;-145.45;100.00;62759.84;5283601;28;20082;-81
2022/03/05 05:08:21;;;;;;;77.53;31.55;;;;;;;-145.45;100.00;62759.84;5283186;28;20040;-80
2022/03/05 05:10:52;;;;;;;79.38;29.60;;;;;;;-145.45;100.00;62759.84;5282607;28;20033;-80
2022/03/05 05:13:23;;;;;;;82.13;33.78;;;;;;;-145.45;100.00;62759.84;5285166;28;20481;-80
2022/03/05 05:15:54;;;;;;;82.07;30.85;;;;;;;-145.45;100.00;62759.84;5283475;28;20438;-81
2022/03/05 05:18:26;;;;;;;92.70;32.10;;;;;;;-145.45;100.00;62759.84;5283114;28;20021;-79
2022/03/05 05:20:57;;;;;;;86.72;31.90;;;;;;;-145.45;100.00;62759.84;5266772;28;20518;-81
2022/03/05 05:23:28;;;;;;;84.60;30.95;;;;;;;-145.45;100.00;62759.84;5284315;28;20413;-80
2022/03/05 05:26:00;;;;;;;82.10;31.30;;;;;;;-145.45;100.00;62759.84;5282958;28;20032;-80
2022/03/05 05:28:31;;;;;;;78.75;29.88;;;;;;;-145.45;100.00;62759.84;5283520;28;20035;-80
2022/03/05 05:31:02;;;;;;;79.10;30.67;;;;;;;-145.45;100.00;62759.84;5267234;28;20061;-80
2022/03/05 05:33:33;;;;;;;74.93;30.88;;;;;;;-145.45;100.00;62759.84;5282127;28;20016;-80
2022/03/05 05:36:05;;;;;;;75.35;29.95;;;;;;;-145.45;100.00;62759.84;5287585;28;20028;-80
2022/03/05 05:38:36;;;;;;;75.70;30.17;;;;;;;-145.45;100.00;62759.84;5284516;28;20035;-81
2022/03/05 05:41:08;;;;;;;84.65;32.47;;;;;;;-145.45;100.00;62759.84;5286142;28;20558;-80
2022/03/05 05:43:39;;;;;;;78.60;30.40;;;;;;;-145.45;100.00;62759.84;5286252;28;20078;-80
2022/03/05 05:46:11;;;;;;;85.78;32.17;;;;;;;-145.45;100.00;62759.84;5282527;28;20047;-80
2022/03/05 05:48:42;;;;;;;80.00;29.88;;;;;;;-145.45;100.00;62759.84;5282100;28;20485;-80
2022/03/05 05:51:14;;;;;;;81.22;31.50;;;;;;;-145.45;100.00;62759.84;5280385;28;20401;-79
2022/03/05 05:53:45;;;;;;;87.53;30.70;;;;;;;-145.45;100.00;62759.84;5264965;28;20477;-80
2022/03/05 05:56:16;;;;;;;76.32;31.20;;;;;;;-145.45;100.00;62759.84;5280580;28;20105;-80
2022/03/05 05:58:49;;;;;;;75.78;30.20;;;;;;;-145.45;100.00;62759.84;5263512;28;20079;-79
2022/03/05 06:01:20;;;;;;;76.78;30.38;;;;;;;-145.45;100.00;62759.84;5279020;28;20481;-80
2022/03/05 06:03:53;;;;;;;82.60;30.60;;;;;;;-145.45;100.00;62759.84;5280071;28;20071;-81
2022/03/05 06:06:24;;;;;;;83.82;30.73;;;;;;;-145.45;100.00;62759.84;5278839;28;20035;-80
2022/03/05 06:08:55;;;;;;;80.90;31.13;;;;;;;-145.45;100.00;62759.84;5279470;28;42906;-80
2022/03/05 06:11:27;;;;;;;85.85;32.60;;;;;;;-145.45;100.00;62759.84;5278258;28;20017;-81
2022/03/05 06:13:58;;;;;;;85.60;31.20;;;;;;;-145.45;100.00;62759.84;5277569;28;20025;-80
2022/03/05 06:16:29;;;;;;;77.57;28.67;;;;;;;-145.45;100.00;62759.84;5261472;28;20088;-80
2022/03/05 06:19:01;;;;;;;76.05;29.80;;;;;;;-145.45;100.00;62759.84;5263434;28;40916;-80
2022/03/05 06:21:32;;;;;;;84.90;29.80;;;;;;;-145.45;100.00;62759.84;5280235;28;20386;-81
2022/03/05 06:24:04;;;;;;;81.82;30.90;;;;;;;-145.45;100.00;62759.84;5265865;28;20481;-81
2022/03/05 06:26:36;;;;;;;83.10;30.85;;;;;;;-145.45;100.00;62759.84;5282972;28;20119;-81
2022/03/05 06:29:07;;;;;;;79.03;29.88;;;;;;;-145.45;100.00;62759.84;5283340;28;20025;-81
2022/03/05 06:31:38;;;;;;;82.63;31.65;;;;;;;-145.45;100.00;62759.84;5283461;28;20477;-81
2022/03/05 06:34:10;;;;;;;92.88;32.58;;;;;;;-145.45;100.00;62759.84;5284291;28;20087;-81
2022/03/05 06:36:41;;;;;;;79.53;31.65;;;;;;;-145.45;100.00;62759.84;5283186;28;20493;-81
2022/03/05 06:39:12;;;;;;;83.88;31.77;;;;;;;-145.45;100.00;62759.84;5265503;28;20037;-81
2022/03/05 06:41:44;;;;;;;73.57;27.55;;;;;;;-145.45;100.00;62759.84;5283889;28;20389;-81
2022/03/05 06:44:15;;;;;;;94.10;34.35;;;;;;;-145.45;100.00;62759.84;5284881;28;20087;-82
2022/03/05 06:46:47;;;;;;;88.10;31.17;;;;;;;-145.45;100.00;62759.84;5284818;28;20031;-81
2022/03/05 06:49:18;;;;;;;86.35;31.15;;;;;;;-145.45;100.00;62759.84;5266589;28;20152;-81
2022/03/05 06:51:49;;;;;;;91.68;33.00;;;;;;;-145.45;100.00;62759.84;5284894;28;20017;-81
2022/03/05 06:54:20;;;;;;;95.15;34.60;;;;;;;-145.45;100.00;62759.84;5286692;28;20037;-81
2022/03/05 06:56:52;;;;;;;85.03;30.80;;;;;;;-145.45;100.00;62759.84;5269174;28;20021;-81
2022/03/05 06:59:24;;;;;;;90.78;32.35;;;;;;;-145.45;100.00;62759.84;5293345;28;20013;-81
2022/03/05 07:01:56;;;;;;;86.35;32.05;;;;;;;-145.45;100.00;62759.84;5302223;28;20108;-81
2022/03/05 07:04:27;;;;;;;80.18;31.35;;;;;;;-145.45;100.00;62759.84;5296097;28;20041;-82
2022/03/05 07:06:58;;;;;;;86.57;32.20;;;;;;;-145.45;100.00;62759.84;5295744;28;20029;-81
2022/03/05 07:09:30;;;;;;;87.00;35.42;;;;;;;-145.45;100.00;62759.84;5295198;28;20017;-81
2022/03/05 07:12:02;;;;;;;79.72;30.67;;;;;;;-145.45;100.00;62759.84;5295496;28;20067;-81
2022/03/05 07:14:33;;;;;;;88.72;31.65;;;;;;;-145.45;100.00;62759.84;5269090;28;20051;-81
2022/03/05 07:17:04;;;;;;;80.80;30.58;;;;;;;-145.45;100.00;62759.84;5284907;28;20025;-81
2022/03/05 07:19:36;;;;;;;88.53;32.33;;;;;;;-145.45;100.00;62759.84;5285357;28;20793;-80
2022/03/05 07:22:07;;;;;;;103.28;37.60;;;;;;;-145.45;100.00;62759.84;5284939;28;20101;-81
2022/03/05 07:24:39;;;;;;;109.82;40.83;;;;;;;-145.45;100.00;62759.84;5266186;28;20405;-81
2022/03/05 07:27:10;;;;;;;106.45;39.60;;;;;;;-145.45;100.00;62759.84;5266064;28;20028;-81
2022/03/05 07:29:43;;;;;;;104.72;41.33;;;;;;;-145.45;100.00;62759.84;5285180;28;20056;-80
2022/03/05 07:32:15;;;;;;;79.18;35.15;;;;;;;-145.45;100.00;62759.84;5284429;28;20055;-81
2022/03/05 07:34:46;;;;;;;65.38;31.55;;;;;;;-145.45;100.00;62759.84;5284710;28;20033;-82
2022/03/05 07:37:17;;;;;;;58.40;28.25;;;;;;;-145.45;100.00;62759.84;5264156;28;20385;-81
2022/03/05 07:39:48;;;;;;;53.75;28.33;;;;;;;-145.45;100.00;62759.84;5282752;28;20716;-81
2022/03/05 07:42:20;;;;;;;53.58;27.02;;;;;;;-145.45;100.00;62759.84;5283227;28;20057;-81
2022/03/05 07:44:51;;;;;;;46.13;25.00;;;;;;;-145.45;100.00;62759.84;5283018;28;20107;-81
2022/03/05 07:47:25;;;;;;;41.58;20.50;;;;;;;-145.45;100.00;62759.84;5280829;28;20116;-81
2022/03/05 07:49:56;;;;;;;43.90;24.05;;;;;;;-145.45;100.00;62759.84;5282547;28;20103;-82
2022/03/05 07:52:28;;;;;;;40.10;22.08;;;;;;;-145.45;100.00;62759.84;5280388;28;20028;-82
2022/03/05 07:54:59;;;;;;;43.28;24.60;;;;;;;-145.45;100.00;62759.84;5281831;28;20237;-82
2022/03/05 07:57:33;;;;;;;38.72;23.50;;;;;;;-145.45;100.00;62759.84;5266555;28;20338;-82
2022/03/05 08:00:06;;;;;;;42.00;23.13;;;;;;;-145.45;100.00;62759.84;5263629;28;20401;-82
2022/03/05 08:02:37;;;;;;;39.83;23.85;;;;;;;-145.45;100.00;62759.84;5283408;28;20036;-82
2022/03/05 08:05:09;;;;;;;39.35;23.13;;;;;;;-145.45;100.00;62759.84;5282929;28;20039;-82
2022/03/05 08:07:40;;;;;;;38.00;22.92;;;;;;;-145.45;100.00;62759.84;5283404;28;20401;-82
2022/03/05 08:10:11;;;;;;;36.20;22.15;;;;;;;-145.45;100.00;62759.84;5263823;28;20094;-82
2022/03/05 08:12:43;;;;;;;39.65;23.13;;;;;;;-145.45;100.00;62759.84;5283278;28;20032;-82
2022/03/05 08:15:15;;;;;;;38.25;23.40;;;;;;;-145.45;100.00;62759.84;5263843;28;20036;-82
2022/03/05 08:17:58;;;;;;;37.67;24.13;;;;;;;-145.45;100.00;62759.84;5283968;28;20025;-82
2022/03/05 08:20:31;;;;;;;37.75;23.33;;;;;;;-145.45;100.00;62759.84;5280867;28;20343;-82
2022/03/05 08:23:02;;;;;;;37.38;23.13;;;;;;;-145.45;100.00;62759.84;5284950;28;20560;-82
2022/03/05 08:25:33;;;;;;;39.92;25.10;;;;;;;-145.45;100.00;62759.84;5263663;28;20074;-82
2022/03/05 08:28:05;;;;;;;39.85;24.63;;;;;;;-145.45;100.00;62759.84;5282625;28;20025;-82
2022/03/05 08:30:36;;;;;;;38.35;23.42;;;;;;;-145.45;100.00;62759.84;5281047;28;20079;-83
2022/03/05 08:33:08;;;;;;;39.90;23.45;;;;;;;-145.45;100.00;62759.84;5283122;28;20056;-82
2022/03/05 08:35:39;;;;;;;38.53;23.70;;;;;;;-145.45;100.00;62759.84;5263577;28;20025;-82
2022/03/05 08:38:10;;;;;;;38.00;24.27;;;;;;;-145.45;100.00;62759.84;5283074;28;20025;-83
2022/03/05 08:40:42;;;;;;;38.80;23.90;;;;;;;-145.45;100.00;62759.84;5280562;28;20052;-82
2022/03/05 08:43:13;;;;;;;36.47;23.90;;;;;;;-145.45;100.00;62759.84;5264584;28;20037;-82
2022/03/05 08:45:45;;;;;;;38.50;24.10;;;;;;;-145.45;100.00;62759.84;5281477;28;41502;-83
2022/03/05 08:48:16;;;;;;;36.15;22.98;;;;;;;-145.45;100.00;62759.84;5280294;28;20492;-83
2022/03/05 08:50:47;;;;;;;38.42;23.67;;;;;;;-145.45;100.00;62759.84;5282138;28;20124;-82
2022/03/05 08:53:18;;;;;;;38.83;24.88;;;;;;;-145.45;100.00;62759.84;5283219;28;20025;-82
2022/03/05 08:55:50;;;;;;;34.85;23.35;;;;;;;-145.45;100.00;62759.84;5266567;28;43335;-83
2022/03/05 08:58:22;;;;;;;37.08;25.17;;;;;;;-145.45;100.00;62759.84;5288165;28;20092;-83
2022/03/05 09:00:53;;;;;;;42.22;24.20;;;;;;;-145.45;100.00;62759.84;5291860;28;20029;-83
2022/03/05 09:03:25;;;;;;;38.30;24.63;;;;;;;-145.45;100.00;62759.84;5273550;28;20392;-83
2022/03/05 09:05:57;;;;;;;36.28;23.73;;;;;;;-145.45;100.00;62759.84;5273646;28;20147;-84
2022/03/05 09:08:29;;;;;;;37.72;24.45;;;;;;;-145.45;100.00;62759.84;5268336;28;20631;-83
2022/03/05 09:11:00;;;;;;;35.03;24.02;;;;;;;-145.45;100.00;62759.84;5282670;28;20025;-84
2022/03/05 09:13:31;;;;;;;35.58;24.77;;;;;;;-145.45;100.00;62759.84;5283917;28;20028;-84
2022/03/05 09:16:04;;;;;;;34.38;24.13;;;;;;;-145.45;100.00;62759.84;5267703;28;20374;-84
2022/03/05 09:18:35;;;;;;;31.52;22.17;;;;;;;-145.45;100.00;62759.84;5287116;28;20060;-84
2022/03/05 09:21:07;;;;;;;36.95;24.25;;;;;;;-145.45;100.00;62759.84;5288842;28;20029;-84
2022/03/05 09:23:38;;;;;;;34.22;24.10;;;;;;;-145.45;100.00;62759.84;5292167;28;20033;-84
2022/03/05 09:26:09;;;;;;;35.75;23.80;;;;;;;-145.45;100.00;62759.84;5291726;28;20033;-85
2022/03/05 09:28:41;;;;;;;35.00;23.83;;;;;;;-145.45;100.00;62759.84;5294605;28;20029;-84
2022/03/05 09:31:12;;;;;;;37.60;24.98;;;;;;;-145.45;100.00;62759.84;5270051;28;20048;-84
2022/03/05 09:33:43;;;;;;;31.73;24.40;;;;;;;-145.45;100.00;62759.84;5291863;28;20071;-85
2022/03/05 09:36:15;;;;;;;33.97;24.70;;;;;;;-145.45;100.00;62759.84;5289645;28;20024;-84
2022/03/05 09:38:48;;;;;;;32.75;23.98;;;;;;;-145.45;100.00;62759.84;5283124;28;20439;-85
2022/03/05 09:41:19;;;;;;;36.20;24.38;;;;;;;-145.45;100.00;62759.84;5282906;28;20032;-85
2022/03/05 09:43:51;;;;;;;30.15;23.70;;;;;;;-145.45;100.00;62759.84;5273857;28;20409;-85
2022/03/05 09:46:22;;;;;;;34.47;24.98;;;;;;;-145.45;100.00;62759.84;5284276;28;20071;-85
2022/03/05 09:48:54;;;;;;;31.15;22.80;;;;;;;-145.45;100.00;62759.84;5276834;28;20020;-85
2022/03/05 09:51:25;;;;;;;33.38;23.92;;;;;;;-145.45;100.00;62759.84;5282559;28;20056;-85
2022/03/05 09:53:57;;;;;;;27.98;23.15;;;;;;;-145.45;100.00;62759.84;5282291;28;20025;-85
2022/03/05 09:56:29;;;;;;;29.67;22.80;;;;;;;-145.45;100.00;62759.84;5247286;28;20513;-85
2022/03/05 09:59:00;;;;;;;33.97;24.20;;;;;;;-145.45;100.00;62759.84;5282220;28;20033;-83
2022/03/05 10:01:33;;;;;;;31.80;23.95;;;;;;;-145.45;100.00;62759.84;5263860;28;20017;-84
2022/03/05 10:04:04;;;;;;;30.92;23.05;;;;;;;-145.45;100.00;62759.84;5282106;28;20044;-83
2022/03/05 10:06:36;;;;;;;29.65;22.42;;;;;;;-145.45;100.00;62759.84;5263914;28;20590;-84
2022/03/05 10:09:20;;;;;;;30.52;23.70;;;;;;;-145.45;100.00;62759.84;5268034;28;20036;-83
2022/03/05 10:11:51;;;;;;;31.00;23.75;;;;;;;-145.45;100.00;62759.84;5281253;28;20021;-82
2022/03/05 10:14:23;;;;;;;31.60;24.90;;;;;;;-145.45;100.00;62759.84;5282406;28;20469;-84
2022/03/05 10:17:00;;;;;;;26.67;21.75;;;;;;;-145.45;100.00;62759.84;5282494;28;20021;-84
2022/03/05 10:19:32;;;;;;;29.92;22.88;;;;;;;-145.45;100.00;62759.84;5262997;28;20017;-84
2022/03/05 10:22:05;;;;;;;31.90;23.77;;;;;;;-145.45;100.00;62759.84;5282177;28;20017;-84
2022/03/05 10:24:39;;;;;;;29.20;22.75;;;;;;;-145.45;100.00;62759.84;5264012;28;20033;-84
2022/03/05 10:27:11;;;;;;;29.40;23.23;;;;;;;-145.45;100.00;62759.84;5281765;28;20017;-84
2022/03/05 10:29:43;;;;;;;27.88;23.02;;;;;;;-145.45;100.00;62759.84;5282528;28;20135;-84
2022/03/05 10:32:15;;;;;;;26.05;22.60;;;;;;;-145.45;100.00;62759.84;5282374;28;20120;-84
2022/03/05 10:34:48;;;;;;;28.63;23.17;;;;;;;-145.45;100.00;62759.84;5282594;28;20504;-84
2022/03/05 10:37:22;;;;;;;25.88;22.08;;;;;;;-145.45;100.00;62759.84;5282318;28;20057;-84
2022/03/05 10:39:53;;;;;;;28.23;22.75;;;;;;;-145.45;100.00;62759.84;5281641;28;20030;-84
2022/03/05 10:42:26;;;;;;;26.83;21.50;;;;;;;-145.45;100.00;62759.84;5282533;28;20051;-84
2022/03/05 10:45:07;;;;;;;26.23;22.02;;;;;;;-145.45;100.00;62759.84;5282103;28;20086;-85
2022/03/05 10:47:45;;;;;;;27.13;21.80;;;;;;;-145.45;100.00;62759.84;5246198;28;20489;-84
2022/03/05 10:50:30;;;;;;;27.58;21.80;;;;;;;-145.45;100.00;62759.84;5260461;28;20095;-85
2022/03/05 10:53:02;;;;;;;29.80;22.25;;;;;;;-145.45;100.00;62759.84;5273440;28;20028;-84
2022/03/05 10:55:37;;;;;;;26.95;22.02;;;;;;;-145.45;100.00;62759.84;5262302;28;20028;-85
2022/03/05 10:58:14;;;;;;;30.15;24.02;;;;;;;-145.45;100.00;62759.84;5281155;28;20035;-85
2022/03/05 11:00:49;;;;;;;27.73;21.25;;;;;;;-145.45;100.00;62759.84;5281780;28;20033;-85
2022/03/05 11:03:21;;;;;;;28.40;22.92;;;;;;;-145.45;100.00;62759.84;5271120;28;20033;-85
2022/03/05 11:05:53;;;;;;;27.52;22.77;;;;;;;-145.45;100.00;62759.84;5284482;28;20021;-85
2022/03/05 11:08:26;;;;;;;32.17;23.73;;;;;;;-145.45;100.00;62759.84;5268423;28;20033;-85
2022/03/05 11:10:57;;;;;;;27.10;22.10;;;;;;;-145.45;100.00;62759.84;5266981;28;20048;-85
2022/03/05 11:13:29;;;;;;;29.02;21.98;;;;;;;-145.45;100.00;62759.84;5267023;28;20090;-85
2022/03/05 11:16:02;;;;;;;28.27;22.38;;;;;;;-145.45;100.00;62759.84;5285824;28;20420;-85
2022/03/05 11:18:34;;;;;;;29.90;23.98;;;;;;;-145.45;100.00;62759.84;5266830;28;20450;-85